createdAt,value
2023-05-20T00:00:59.912Z,10.76
2023-05-20T00:03:29.906Z,10.76
2023-05-20T00:05:58.500Z,10.74
2023-05-20T00:08:26.892Z,10.74
2023-05-20T00:10:55.331Z,10.72
2023-05-20T00:13:24.744Z,10.72
2023-05-20T00:15:53.732Z,10.72
2023-05-20T00:18:22.036Z,10.71
2023-05-20T00:20:50.553Z,10.70
2023-05-20T00:23:18.897Z,10.70
2023-05-20T00:25:47.199Z,10.68
2023-05-20T00:28:15.684Z,10.68
2023-05-20T00:30:43.958Z,10.68
2023-05-20T00:33:12.847Z,10.68
2023-05-20T00:35:41.191Z,10.67
2023-05-20T00:38:09.583Z,10.66
2023-05-20T00:40:38.017Z,10.65
2023-05-20T00:43:06.271Z,10.66
2023-05-20T00:45:34.918Z,10.66
2023-05-20T00:48:04.365Z,10.65
2023-05-20T00:50:32.760Z,10.63
2023-05-20T00:53:01.659Z,10.63
2023-05-20T00:55:29.990Z,10.63
2023-05-20T00:57:58.899Z,10.63
2023-05-20T01:00:27.453Z,10.62
2023-05-20T01:02:56.905Z,10.61
2023-05-20T01:05:25.439Z,10.62
2023-05-20T01:07:53.971Z,10.61
2023-05-20T01:10:25.966Z,10.62
2023-05-20T01:12:58.257Z,10.62
2023-05-20T01:15:28.022Z,10.62
2023-05-20T01:18:01.837Z,10.62
2023-05-20T01:20:32.778Z,10.61
2023-05-20T01:23:01.445Z,10.62
2023-05-20T01:25:30.045Z,10.63
2023-05-20T01:27:58.794Z,10.63
2023-05-20T01:30:33.976Z,10.62
2023-05-20T01:33:07.832Z,10.62
2023-05-20T01:35:36.925Z,10.63
2023-05-20T01:38:07.372Z,10.64
2023-05-20T01:40:36.679Z,10.64
2023-05-20T01:43:06.240Z,10.65
2023-05-20T01:45:34.699Z,10.65
2023-05-20T01:48:03.603Z,10.66
2023-05-20T01:50:32.012Z,10.66
2023-05-20T01:53:00.488Z,10.67
2023-05-20T01:55:28.955Z,10.67
2023-05-20T01:57:57.450Z,10.67
2023-05-20T02:00:25.728Z,10.68
2023-05-20T02:02:54.126Z,10.68
2023-05-20T02:05:22.498Z,10.69
2023-05-20T02:07:51.000Z,10.69
2023-05-20T02:10:22.142Z,10.70
2023-05-20T02:12:50.455Z,10.70
2023-05-20T02:15:18.817Z,10.70
2023-05-20T02:17:47.380Z,10.70
2023-05-20T02:20:16.403Z,10.69
2023-05-20T02:22:44.773Z,10.70
2023-05-20T02:25:13.110Z,10.70
2023-05-20T02:27:41.345Z,10.69
2023-05-20T02:30:10.644Z,10.70
2023-05-20T02:32:39.119Z,10.70
2023-05-20T02:35:08.144Z,10.71
2023-05-20T02:37:36.476Z,10.71
2023-05-20T02:40:05.342Z,10.72
2023-05-20T02:42:33.808Z,10.72
2023-05-20T02:45:02.621Z,10.72
2023-05-20T02:47:31.021Z,10.72
2023-05-20T02:49:59.351Z,10.72
2023-05-20T02:52:27.579Z,10.71
2023-05-20T02:54:56.527Z,10.71
2023-05-20T02:57:25.738Z,10.71
2023-05-20T02:59:56.408Z,10.72
2023-05-20T03:02:25.278Z,10.72
2023-05-20T03:04:54.993Z,10.73
2023-05-20T03:07:23.502Z,10.74
2023-05-20T03:09:52.510Z,10.75
2023-05-20T03:12:20.967Z,10.76
2023-05-20T03:14:49.226Z,10.77
2023-05-20T03:17:17.614Z,10.77
2023-05-20T03:19:46.382Z,10.78
2023-05-20T03:22:14.713Z,10.79
2023-05-20T03:24:44.473Z,10.80
2023-05-20T03:27:14.364Z,10.80
2023-05-20T03:29:42.781Z,10.81
2023-05-20T03:32:11.349Z,10.83
2023-05-20T03:34:40.112Z,10.84
2023-05-20T03:37:08.518Z,10.85
2023-05-20T03:39:36.821Z,10.85
2023-05-20T03:42:05.721Z,10.84
2023-05-20T03:44:34.135Z,10.85
2023-05-20T03:47:02.728Z,10.86
2023-05-20T03:49:31.489Z,10.87
2023-05-20T03:51:59.867Z,10.87
2023-05-20T03:54:30.109Z,10.87
2023-05-20T03:56:58.535Z,10.88
2023-05-20T03:59:27.619Z,10.89
2023-05-20T04:01:59.859Z,10.89
2023-05-20T04:04:28.357Z,10.90
2023-05-20T04:06:57.044Z,10.90
2023-05-20T04:09:25.502Z,10.92
2023-05-20T04:11:53.900Z,10.92
2023-05-20T04:14:22.280Z,10.92
2023-05-20T04:16:51.760Z,10.93
2023-05-20T04:19:20.320Z,10.93
2023-05-20T04:21:48.636Z,10.93
2023-05-20T04:24:17.276Z,10.92
2023-05-20T04:26:45.820Z,10.93
2023-05-20T04:29:16.125Z,10.94
2023-05-20T04:31:46.540Z,10.95
2023-05-20T04:34:15.320Z,10.95
2023-05-20T04:36:45.748Z,10.95
2023-05-20T04:39:15.714Z,10.96
2023-05-20T04:41:44.256Z,10.95
2023-05-20T04:44:13.451Z,10.96
2023-05-20T04:46:41.836Z,10.97
2023-05-20T04:49:10.368Z,10.98
2023-05-20T04:51:38.927Z,10.99
2023-05-20T04:54:07.737Z,11.02
2023-05-20T04:56:36.421Z,11.05
2023-05-20T04:59:05.142Z,11.09
2023-05-20T05:01:33.520Z,11.11
2023-05-20T05:04:06.494Z,11.14
2023-05-20T05:06:50.739Z,11.16
2023-05-20T05:09:27.546Z,11.19
2023-05-20T05:12:03.692Z,-100.16
2023-05-20T05:14:32.043Z,-128.00
2023-05-20T05:17:00.406Z,-128.00
2023-05-20T05:19:28.996Z,-128.00
2023-05-20T05:21:57.602Z,-72.23
2023-05-20T05:24:26.268Z,-100.12
2023-05-20T05:26:55.651Z,-128.00
2023-05-20T05:29:24.762Z,-128.00
2023-05-20T05:31:53.189Z,-128.00
2023-05-20T05:34:21.719Z,-128.00
2023-05-20T05:36:50.196Z,-128.00
2023-05-20T05:39:18.671Z,-128.00
2023-05-20T05:41:47.017Z,-128.00
2023-05-20T05:44:15.947Z,-128.00
2023-05-20T05:46:44.519Z,-128.00
2023-05-20T05:49:12.765Z,-128.00
2023-05-20T05:51:42.056Z,-128.00
2023-05-20T05:54:10.475Z,-128.00
2023-05-20T05:56:39.513Z,-72.03
2023-05-20T05:59:08.057Z,-128.00
2023-05-20T06:01:37.506Z,-128.00
2023-05-20T06:04:07.102Z,-128.00
2023-05-20T06:06:36.030Z,-128.00
2023-05-20T06:09:04.907Z,-128.00
2023-05-20T06:11:36.576Z,-128.00
2023-05-20T06:14:04.961Z,-128.00
2023-05-20T06:16:33.246Z,-128.00
2023-05-20T06:19:03.651Z,-128.00
2023-05-20T06:21:33.016Z,-128.00
2023-05-20T06:24:01.462Z,-128.00
2023-05-20T06:26:30.069Z,-128.00
2023-05-20T06:28:59.246Z,-128.00
2023-05-20T06:31:27.853Z,-128.00
2023-05-20T06:33:56.555Z,-128.00
2023-05-20T06:36:25.003Z,-128.00
2023-05-20T06:38:53.240Z,-100.01
2023-05-20T06:41:22.434Z,-128.00
2023-05-20T06:43:53.497Z,-128.00
2023-05-20T06:46:43.743Z,-128.00
2023-05-20T06:49:16.346Z,-128.00
2023-05-20T06:51:44.847Z,-128.00
2023-05-20T06:54:13.186Z,-128.00
2023-05-20T06:56:41.562Z,-128.00
2023-05-20T06:59:09.998Z,-128.00
2023-05-20T07:01:39.241Z,-128.00
2023-05-20T07:04:07.773Z,-128.00
2023-05-20T07:06:36.274Z,-128.00
2023-05-20T07:09:05.650Z,-128.00
2023-05-20T07:11:34.572Z,-128.00
2023-05-20T07:14:02.942Z,-128.00
2023-05-20T07:16:35.306Z,-128.00
2023-05-20T07:19:04.415Z,-99.79
2023-05-20T07:21:32.987Z,-128.00
2023-05-20T07:24:36.009Z,-128.00
2023-05-20T07:27:07.404Z,-128.00
2023-05-20T07:29:37.977Z,-128.00
2023-05-20T07:32:06.937Z,-128.00
2023-05-20T07:34:36.234Z,-99.79
2023-05-20T07:37:04.793Z,-128.00
2023-05-20T07:39:35.082Z,-128.00
2023-05-20T07:42:03.497Z,-128.00
2023-05-20T07:44:32.006Z,-128.00
2023-05-20T07:47:01.154Z,-128.00
2023-05-20T07:49:29.967Z,-128.00
2023-05-20T07:52:00.897Z,-128.00
2023-05-20T07:54:34.184Z,-128.00
2023-05-20T07:57:33.734Z,-128.00
2023-05-20T08:00:04.099Z,-128.00
2023-05-20T08:02:32.612Z,-128.00
2023-05-20T08:05:01.251Z,-128.00
2023-05-20T08:07:29.715Z,-128.00
2023-05-20T08:09:58.363Z,-128.00
2023-05-20T08:12:28.152Z,-128.00
2023-05-20T08:14:56.521Z,-128.00
2023-05-20T08:17:25.241Z,-128.00
2023-05-20T08:19:55.265Z,-128.00
2023-05-20T08:22:23.769Z,-128.00
2023-05-20T08:24:52.115Z,-128.00
2023-05-20T08:27:20.576Z,-128.00
2023-05-20T08:29:48.871Z,-128.00
2023-05-20T08:32:17.338Z,-128.00
2023-05-20T08:34:46.286Z,-131.52
2023-05-20T08:37:14.787Z,-128.00
2023-05-20T08:39:45.147Z,-128.00
2023-05-20T08:42:13.888Z,-128.00
2023-05-20T08:44:43.294Z,-131.52
2023-05-20T08:47:12.763Z,-131.52
2023-05-20T08:49:41.218Z,-131.52
2023-05-20T08:52:11.694Z,-128.00
2023-05-20T08:54:50.375Z,-128.00
2023-05-20T08:57:20.405Z,-128.00
2023-05-20T08:59:51.716Z,-128.00
2023-05-20T09:02:20.073Z,-128.00
2023-05-20T09:04:48.516Z,-128.00
2023-05-20T09:07:30.061Z,-128.00
2023-05-20T09:09:59.189Z,-128.00
2023-05-20T09:12:27.801Z,-128.00
2023-05-20T09:14:56.100Z,-128.00
2023-05-20T09:17:24.680Z,-128.00
2023-05-20T09:19:54.259Z,-128.00
2023-05-20T09:24:25.458Z,16.08
2023-05-20T09:26:53.918Z,16.08
2023-05-20T09:29:25.814Z,16.09
2023-05-20T09:31:56.590Z,16.14
2023-05-20T09:34:25.097Z,16.20
2023-05-20T09:36:55.284Z,16.26
2023-05-20T09:39:27.616Z,16.29
2023-05-20T09:42:04.028Z,16.28
2023-05-20T09:44:34.287Z,16.31
2023-05-20T09:47:03.150Z,16.34
2023-05-20T09:49:33.026Z,16.34
2023-05-20T09:52:03.956Z,16.38
2023-05-20T09:54:32.419Z,16.45
2023-05-20T09:57:01.209Z,16.55
2023-05-20T09:59:31.851Z,16.66
2023-05-20T10:02:00.919Z,16.77
2023-05-20T10:04:31.441Z,16.86
2023-05-20T10:07:11.992Z,16.98
2023-05-20T10:09:43.610Z,17.07
2023-05-20T10:12:14.834Z,17.09
2023-05-20T10:14:48.962Z,17.13
2023-05-20T10:17:45.675Z,17.19
2023-05-20T10:20:14.536Z,17.29
2023-05-20T10:22:45.381Z,17.40
2023-05-20T10:25:28.552Z,17.54
2023-05-20T10:28:09.213Z,17.72
2023-05-20T10:30:38.171Z,17.86
2023-05-20T10:33:07.824Z,18.03
2023-05-20T10:35:36.568Z,18.23
2023-05-20T10:38:11.108Z,18.38
2023-05-20T10:40:39.447Z,18.47
2023-05-20T10:43:13.362Z,18.47
2023-05-20T10:45:53.639Z,18.51
2023-05-20T10:48:32.373Z,18.64
2023-05-20T10:51:05.919Z,18.86
2023-05-20T10:53:42.218Z,19.04
2023-05-20T10:56:24.015Z,19.30
2023-05-20T10:58:54.833Z,19.52
2023-05-20T11:01:28.604Z,19.66
2023-05-20T11:03:58.605Z,19.75
2023-05-20T11:06:35.082Z,20.00
2023-05-20T11:09:25.609Z,20.31
2023-05-20T11:12:07.913Z,20.58
2023-05-20T11:14:41.151Z,20.70
2023-05-20T11:17:44.622Z,20.91
2023-05-20T11:23:30.290Z,21.42
2023-05-20T11:26:10.631Z,21.66
2023-05-20T11:29:17.175Z,21.91
2023-05-20T11:31:52.907Z,22.24
2023-05-20T11:34:26.799Z,22.32
2023-05-20T11:37:13.786Z,22.11
2023-05-20T11:40:10.048Z,21.87
2023-05-20T11:42:38.496Z,21.78
2023-05-20T11:45:07.277Z,21.74
2023-05-20T11:47:35.618Z,21.74
2023-05-20T11:50:05.005Z,21.90
2023-05-20T11:52:34.055Z,22.12
2023-05-20T11:55:03.099Z,22.40
2023-05-20T11:57:31.813Z,22.61
2023-05-20T12:00:00.117Z,22.73
2023-05-20T12:02:28.500Z,22.73
2023-05-20T12:04:58.359Z,22.57
2023-05-20T12:07:26.840Z,22.53
2023-05-20T12:10:02.333Z,22.52
2023-05-20T12:12:36.507Z,22.52
2023-05-20T12:15:15.938Z,22.68
2023-05-20T12:17:54.105Z,22.90
2023-05-20T12:20:34.710Z,23.01
2023-05-20T12:23:15.501Z,23.21
2023-05-20T12:26:11.345Z,23.41
2023-05-20T12:28:56.150Z,23.49
2023-05-20T12:31:25.382Z,23.54
2023-05-20T12:33:53.864Z,23.49
2023-05-20T12:36:27.451Z,23.40
2023-05-20T12:39:07.564Z,23.30
2023-05-20T12:41:44.990Z,23.28
2023-05-20T12:44:45.801Z,23.44
2023-05-20T12:50:52.007Z,23.73
2023-05-20T12:53:20.313Z,23.79
2023-05-20T12:55:48.705Z,23.83
2023-05-20T12:58:17.000Z,23.82
2023-05-20T13:00:59.917Z,23.81
2023-05-20T13:03:32.097Z,23.75
2023-05-20T13:06:27.511Z,23.70
2023-05-20T13:09:15.696Z,23.69
2023-05-20T13:12:12.451Z,23.82
2023-05-20T13:15:08.956Z,23.86
2023-05-20T13:17:38.315Z,23.96
2023-05-20T13:20:11.247Z,24.05
2023-05-20T13:22:57.708Z,24.18
2023-05-20T13:25:31.936Z,-67.10
2023-05-20T13:28:00.600Z,-128.00
2023-05-20T13:30:29.142Z,-36.63
2023-05-20T13:32:57.542Z,24.39
2023-05-20T13:35:25.954Z,24.48
2023-05-20T13:37:54.250Z,24.49
2023-05-20T13:40:22.701Z,24.41
2023-05-20T13:42:51.030Z,24.35
2023-05-20T13:45:19.890Z,24.19
2023-05-20T13:47:48.309Z,24.08
2023-05-20T13:50:26.623Z,24.08
2023-05-20T13:53:12.559Z,-6.29
2023-05-20T13:55:41.716Z,-128.00
2023-05-20T13:58:17.447Z,-128.00
2023-05-20T14:00:46.246Z,-128.00
2023-05-20T14:03:15.236Z,-128.00
2023-05-20T14:05:48.333Z,-128.00
2023-05-20T14:08:23.327Z,-128.00
2023-05-20T14:10:59.054Z,-128.00
2023-05-20T14:13:28.927Z,-128.00
2023-05-20T14:16:06.372Z,-128.00
2023-05-20T14:18:34.804Z,-128.00
2023-05-20T14:21:03.132Z,-128.00
2023-05-20T14:23:31.428Z,-128.00
2023-05-20T14:25:59.820Z,-128.00
2023-05-20T14:28:28.082Z,-128.00
2023-05-20T14:31:01.948Z,-128.00
2023-05-20T14:33:36.723Z,-128.00
2023-05-20T14:36:05.388Z,-128.00
2023-05-20T14:38:37.646Z,-128.00
2023-05-20T14:41:10.337Z,-128.00
2023-05-20T14:43:39.120Z,-128.00
2023-05-20T14:46:07.568Z,-128.00
2023-05-20T14:48:36.245Z,-128.00
2023-05-20T14:51:23.723Z,-128.00
2023-05-20T14:57:04.045Z,-128.00
2023-05-20T14:59:33.225Z,-128.00
2023-05-20T15:02:08.311Z,-128.00
2023-05-20T15:04:39.069Z,-128.00
2023-05-20T15:07:07.478Z,-128.00
2023-05-20T15:09:35.801Z,-128.00
2023-05-20T15:12:04.584Z,-128.00
2023-05-20T15:14:43.102Z,-128.00
2023-05-20T15:19:53.658Z,23.56
2023-05-20T15:22:32.135Z,23.56
2023-05-20T15:25:06.019Z,23.53
2023-05-20T15:27:43.290Z,23.46
2023-05-20T15:30:12.212Z,23.40
2023-05-20T15:32:42.828Z,23.37
2023-05-20T15:35:11.599Z,23.34
2023-05-20T15:37:39.840Z,23.30
2023-05-20T15:40:16.331Z,23.26
2023-05-20T15:42:47.738Z,23.20
2023-05-20T15:45:16.226Z,23.12
2023-05-20T15:47:44.734Z,23.07
2023-05-20T15:50:16.076Z,23.01
2023-05-20T15:52:46.718Z,22.95
2023-05-20T15:55:19.296Z,22.90
2023-05-20T15:58:00.619Z,22.85
2023-05-20T16:00:39.939Z,22.76
2023-05-20T16:03:11.400Z,22.65
2023-05-20T16:05:41.013Z,22.58
2023-05-20T16:08:29.565Z,22.50
2023-05-20T16:10:58.421Z,22.45
2023-05-20T16:13:37.582Z,22.38
2023-05-20T16:16:06.147Z,22.31
2023-05-20T16:18:37.127Z,22.26
2023-05-20T16:21:10.054Z,22.21
2023-05-20T16:23:42.439Z,22.16
2023-05-20T16:26:14.784Z,22.12
2023-05-20T16:28:43.066Z,22.07
2023-05-20T16:31:22.694Z,22.03
2023-05-20T16:34:07.396Z,21.97
2023-05-20T16:36:59.231Z,21.94
2023-05-20T16:39:32.159Z,21.91
2023-05-20T16:42:00.741Z,21.87
2023-05-20T16:44:29.085Z,21.84
2023-05-20T16:46:57.495Z,21.81
2023-05-20T16:49:25.885Z,21.79
2023-05-20T16:51:54.170Z,21.76
2023-05-20T16:54:22.506Z,21.71
2023-05-20T16:56:51.068Z,21.67
2023-05-20T16:59:19.366Z,21.64
2023-05-20T17:01:47.705Z,21.61
2023-05-20T17:04:16.518Z,21.57
2023-05-20T17:06:44.805Z,21.53
2023-05-20T17:09:13.228Z,21.48
2023-05-20T17:11:41.708Z,21.44
2023-05-20T17:14:10.108Z,21.37
2023-05-20T17:16:38.618Z,21.30
2023-05-20T17:19:07.066Z,21.22
2023-05-20T17:21:36.705Z,21.14
2023-05-20T17:24:05.545Z,21.07
2023-05-20T17:26:33.880Z,20.99
2023-05-20T17:29:02.219Z,20.91
2023-05-20T17:31:30.616Z,20.82
2023-05-20T17:33:59.100Z,20.74
2023-05-20T17:36:27.513Z,20.65
2023-05-20T17:38:56.412Z,20.57
2023-05-20T17:41:24.650Z,20.48
2023-05-20T17:43:52.893Z,20.38
2023-05-20T17:46:21.743Z,20.29
2023-05-20T17:48:50.092Z,20.19
2023-05-20T17:51:18.416Z,20.09
2023-05-20T17:53:46.827Z,19.97
2023-05-20T17:56:15.943Z,19.85
2023-05-20T17:58:45.335Z,19.71
2023-05-20T18:01:15.305Z,19.60
2023-05-20T18:03:43.964Z,19.47
2023-05-20T18:06:12.882Z,19.37
2023-05-20T18:08:42.415Z,19.27
2023-05-20T18:11:10.863Z,19.17
2023-05-20T18:13:39.296Z,19.06
2023-05-20T18:16:08.017Z,18.97
2023-05-20T18:18:36.338Z,18.88
2023-05-20T18:21:06.892Z,18.78
2023-05-20T18:23:35.160Z,18.69
2023-05-20T18:26:07.072Z,18.59
2023-05-20T18:28:35.666Z,18.50
2023-05-20T18:31:04.098Z,18.40
2023-05-20T18:33:32.381Z,18.32
2023-05-20T18:36:00.991Z,18.24
2023-05-20T18:38:29.306Z,18.16
2023-05-20T18:40:57.666Z,18.06
2023-05-20T18:43:26.657Z,17.99
2023-05-20T18:45:55.152Z,17.91
2023-05-20T18:48:27.157Z,17.84
2023-05-20T18:50:56.460Z,17.76
2023-05-20T18:53:24.774Z,17.68
2023-05-20T18:55:53.177Z,17.61
2023-05-20T18:58:21.618Z,17.55
2023-05-20T19:00:49.968Z,17.48
2023-05-20T19:03:18.484Z,17.40
2023-05-20T19:05:46.967Z,17.34
2023-05-20T19:08:15.936Z,17.27
2023-05-20T19:10:44.214Z,17.21
2023-05-20T19:13:12.997Z,17.12
2023-05-20T19:15:41.285Z,17.04
2023-05-20T19:18:09.883Z,16.97
2023-05-20T19:20:38.249Z,16.89
2023-05-20T19:23:06.974Z,16.83
2023-05-20T19:25:35.742Z,16.76
2023-05-20T19:28:05.118Z,16.68
2023-05-20T19:30:33.489Z,16.59
2023-05-20T19:33:04.922Z,16.50
2023-05-20T19:35:34.052Z,16.42
2023-05-20T19:38:05.112Z,16.33
2023-05-20T19:40:35.600Z,16.24
2023-05-20T19:43:04.496Z,16.16
2023-05-20T19:45:33.070Z,16.07
2023-05-20T19:48:01.736Z,15.99
2023-05-20T19:50:30.659Z,15.94
2023-05-20T19:52:59.506Z,15.89
2023-05-20T19:55:27.824Z,15.82
2023-05-20T19:57:56.662Z,15.76
2023-05-20T20:00:25.066Z,15.72
2023-05-20T20:02:53.390Z,15.68
2023-05-20T20:05:23.829Z,15.65
2023-05-20T20:07:52.525Z,15.63
2023-05-20T20:10:21.093Z,15.62
2023-05-20T20:12:50.064Z,15.61
2023-05-20T20:15:20.530Z,15.61
2023-05-20T20:17:52.342Z,15.60
2023-05-20T20:20:21.624Z,15.60
2023-05-20T20:22:50.009Z,15.59
2023-05-20T20:25:18.901Z,15.60
2023-05-20T20:27:48.828Z,15.58
2023-05-20T20:30:17.204Z,15.57
2023-05-20T20:32:48.411Z,15.56
2023-05-20T20:35:17.232Z,15.53
2023-05-20T20:37:45.483Z,15.49
2023-05-20T20:40:14.939Z,15.45
2023-05-20T20:42:45.495Z,15.43
2023-05-20T20:45:15.412Z,15.40
2023-05-20T20:47:44.747Z,15.38
2023-05-20T20:50:13.757Z,15.35
2023-05-20T20:52:42.959Z,15.33
2023-05-20T20:55:11.510Z,15.30
2023-05-20T20:57:42.118Z,15.28
2023-05-20T21:00:17.421Z,15.26
2023-05-20T21:02:45.836Z,15.23
2023-05-20T21:05:17.609Z,15.20
2023-05-20T21:07:50.170Z,15.16
2023-05-20T21:10:19.630Z,15.13
2023-05-20T21:12:47.898Z,15.10
2023-05-20T21:15:16.373Z,15.06
2023-05-20T21:17:44.769Z,15.01
2023-05-20T21:20:13.586Z,14.96
2023-05-20T21:22:41.928Z,14.87
2023-05-20T21:25:10.227Z,14.77
2023-05-20T21:27:39.049Z,14.67
2023-05-20T21:30:11.555Z,14.56
2023-05-20T21:32:40.171Z,14.46
2023-05-20T21:35:09.101Z,14.37
2023-05-20T21:37:37.480Z,14.29
2023-05-20T21:40:06.794Z,14.21
2023-05-20T21:42:35.025Z,14.15
2023-05-20T21:45:03.538Z,14.09
2023-05-20T21:47:31.880Z,14.04
2023-05-20T21:50:00.345Z,13.98
2023-05-20T21:52:28.770Z,13.91
2023-05-20T21:54:57.154Z,13.83
2023-05-20T21:57:25.496Z,13.76
2023-05-20T21:59:53.756Z,13.70
2023-05-20T22:02:23.131Z,13.63
2023-05-20T22:04:51.584Z,13.56
2023-05-20T22:07:19.790Z,13.50
2023-05-20T22:09:48.255Z,13.45
2023-05-20T22:12:16.545Z,13.39
2023-05-20T22:14:44.712Z,13.33
2023-05-20T22:17:13.173Z,13.26
2023-05-20T22:19:41.652Z,13.20
2023-05-20T22:22:09.945Z,13.13
2023-05-20T22:24:38.255Z,13.08
2023-05-20T22:27:06.619Z,13.01
2023-05-20T22:29:35.414Z,12.95
2023-05-20T22:32:04.126Z,12.90
2023-05-20T22:34:32.575Z,12.85
2023-05-20T22:37:00.959Z,12.80
2023-05-20T22:39:29.369Z,12.76
2023-05-20T22:41:57.837Z,12.71
2023-05-20T22:44:26.222Z,12.67
2023-05-20T22:46:54.592Z,12.63
2023-05-20T22:49:23.873Z,12.60
2023-05-20T22:51:52.916Z,12.56
2023-05-20T22:54:21.370Z,12.51
2023-05-20T22:56:56.776Z,12.47
2023-05-20T22:59:31.337Z,12.44
2023-05-20T23:01:59.773Z,12.39
2023-05-20T23:04:28.239Z,12.36
2023-05-20T23:06:59.158Z,12.31
2023-05-20T23:09:29.199Z,12.25
2023-05-20T23:12:00.731Z,12.20
2023-05-20T23:14:29.247Z,12.16
2023-05-20T23:17:00.749Z,12.12
2023-05-20T23:19:29.327Z,12.06
2023-05-20T23:21:58.847Z,12.03
2023-05-20T23:24:27.180Z,11.98
2023-05-20T23:26:55.592Z,11.94
2023-05-20T23:29:24.022Z,11.89
2023-05-20T23:31:52.420Z,11.85
2023-05-20T23:34:21.485Z,11.81
2023-05-20T23:36:50.347Z,11.76
2023-05-20T23:39:19.065Z,11.73
2023-05-20T23:41:47.401Z,11.70
2023-05-20T23:44:15.861Z,11.66
2023-05-20T23:46:45.199Z,11.64
2023-05-20T23:49:13.437Z,11.60
2023-05-20T23:51:41.719Z,11.56
2023-05-20T23:54:09.939Z,11.51
2023-05-20T23:56:38.784Z,11.50
2023-05-20T23:59:07.323Z,11.49
